الصفحة الرئيسية
METAR-TAF:

METAR-TAF

مطار :

مطار بالما دي مايوركا

بالما دي مايوركا, إسبانيا

دائرة عرض: 39-33N, خط طول: 002-44E, ارتفاع: 4 متر

مراقبة الطقس الحالي

تاريخ ووقت الإصدار 19 دقيقة قبل الساعة 21:30UTC
رياح هادئة
درجة الحرارة 23°درجة مئوية
الرطوبة 78%
ضغط 1015 hPa
الرؤية 10 كم أو أكثر
غيوم قليلة على ارتفاع 3000 قدم

METAR: LEPA 052130Z 00000KT 9999 FEW030 23/19 Q1015 NOSIG

زمن: 23:49 (21:49 UTC)

توقعات

تاريخ ووقت الإصدار 4ساعات و 49 دقيقة قبل الساعة 17:00UTC
التوقعات صالحة من05 الساعة 18 UTC إلى 06 الساعة 18 UTC
ريح 10 عقدة من الجنوب الغربي
الرؤية 10 كم أو أكثر
غيوم قليلة على ارتفاع 3000 قدم
أصبح
من 05 الساعة 19 UTC إلى 05 الساعة 21 UTC
ريح 3 عقدةمن اتجاهات متغيرة
نظرية الاحتمالات 30% :
مؤقت
من 06 الساعة 01 UTC إلى 06 الساعة 07 UTC
الرؤية: 4000 متر
غيوم مفككة على ارتفاع 800 قدم
غشاء
أصبح
من 06 الساعة 08 UTC إلى 06 الساعة 10 UTC
ريح 12 عقدة من الجنوب الغربي

TAF: LEPA 051700Z 0518/0618 22010KT 9999 FEW030 TX31/0612Z TN18/0606Z BECMG 0519/0521 VRB03KT PROB30 TEMPO 0601/0607 4000 BR BKN008 BECMG 0608/0610 22012KT

أرصاد الطقس والتوقعات من أكثر من 4000 مطار (تقارير الطقس للمطار METAR والتنبؤ بالطقس بالمطارTAF).

المحطات المتاحة هي النقط الصفراء والحمراء على الخريطة.

حرك المؤشر فوق النقطة لمعرفة اسم المحطة.

ثم انقر لمعرفة أرصاد وتوقعات الطقس.

لتغيير الخارطة: اضغط على الأزرار الخضراء مع رمز الصليب الأسود للتكبير. على الزر الأخضر مع شرطة للتصغير، أو على الأسهم الخضراء للخرائط المجاورة.


METAR-TAF: